Time;durP1;ratioP1;P1;durP2;ratioP2;P2;SDS_P1;SDS_P2;PMS_P1;PMS_P2;Temp;Humidity;BMP_temperature;BMP_pressure;BME280_temperature;BME280_humidity;BME280_pressure;Samples;Min_cycle;Max_cycle;Signal;HPM_P1;HPM_P2
2023/01/29 00:02:19;;;;;;;10.55;5.72;;;4.30;99.90;;;;;;5171593;27;20498;-77
2023/01/29 00:05:06;;;;;;;12.27;6.90;;;4.30;99.90;;;;;;5171557;27;20039;-80
2023/01/29 00:07:52;;;;;;;13.07;5.70;;;4.30;99.90;;;;;;5175377;27;20116;-83
2023/01/29 00:10:38;;;;;;;16.75;6.72;;;4.30;99.90;;;;;;5154788;27;20054;-84
2023/01/29 00:13:24;;;;;;;15.00;6.07;;;4.30;99.90;;;;;;5142058;27;20042;-81
2023/01/29 00:16:10;;;;;;;14.93;6.68;;;4.30;99.90;;;;;;5171158;27;20420;-81
2023/01/29 00:18:56;;;;;;;13.20;7.32;;;4.30;99.90;;;;;;5171274;27;20521;-82
2023/01/29 00:21:42;;;;;;;13.32;7.28;;;4.30;99.90;;;;;;5170917;27;20069;-81
2023/01/29 00:24:28;;;;;;;13.35;7.45;;;4.20;99.90;;;;;;5178587;27;20050;-84
2023/01/29 00:27:14;;;;;;;14.35;7.25;;;4.20;99.90;;;;;;5174341;27;20054;-82
2023/01/29 00:30:11;;;;;;;15.30;7.28;;;4.20;99.90;;;;;;5153489;27;20058;-82
2023/01/29 00:32:57;;;;;;;13.65;6.72;;;4.20;99.90;;;;;;5157690;27;20046;-82
2023/01/29 00:35:43;;;;;;;14.40;7.35;;;4.20;99.90;;;;;;5171474;27;20085;-81
2023/01/29 00:38:30;;;;;;;16.17;8.32;;;4.20;99.90;;;;;;5138413;27;20145;-83
2023/01/29 00:47:32;;;;;;;14.73;7.95;;;4.20;99.90;;;;;;5171387;27;20401;-82
2023/01/29 00:50:18;;;;;;;14.75;8.65;;;4.20;99.90;;;;;;5151894;27;20145;-81
2023/01/29 00:53:04;;;;;;;13.88;7.88;;;4.30;99.90;;;;;;5171461;27;20046;-80
2023/01/29 00:55:50;;;;;;;13.60;7.85;;;4.20;99.90;;;;;;5158918;27;20062;-78
2023/01/29 00:58:36;;;;;;;15.65;8.50;;;4.20;99.90;;;;;;5172499;27;20102;-81
2023/01/29 01:04:27;;;;;;;16.08;9.23;;;4.20;99.90;;;;;;5174784;27;20061;-84
2023/01/29 01:07:13;;;;;;;15.55;9.25;;;4.20;99.90;;;;;;5156806;27;20054;-84
2023/01/29 01:13:05;;;;;;;16.33;8.77;;;4.20;99.90;;;;;;5175314;27;20046;-81
2023/01/29 01:15:51;;;;;;;17.25;8.77;;;4.20;99.90;;;;;;5174633;27;20042;-84
2023/01/29 01:18:38;;;;;;;17.05;9.20;;;4.20;99.90;;;;;;5175617;27;20050;-80
2023/01/29 01:21:24;;;;;;;20.05;9.98;;;4.20;99.90;;;;;;5176577;27;20057;-78
2023/01/29 01:24:11;;;;;;;16.80;9.88;;;4.20;99.90;;;;;;5175115;27;20042;-80
2023/01/29 01:26:58;;;;;;;18.20;9.63;;;4.30;99.90;;;;;;5158051;27;20054;-85
2023/01/29 01:29:45;;;;;;;21.25;9.98;;;4.20;99.90;;;;;;5179800;27;20760;-80
2023/01/29 01:32:31;;;;;;;17.33;9.88;;;4.30;99.90;;;;;;5177708;27;20050;-79
2023/01/29 01:35:17;;;;;;;21.45;10.82;;;4.30;99.90;;;;;;5158432;27;20045;-79
2023/01/29 01:38:03;;;;;;;17.70;9.32;;;4.30;99.90;;;;;;5176859;27;20501;-83
2023/01/29 01:40:49;;;;;;;21.02;10.63;;;4.30;99.90;;;;;;5176354;27;20386;-82
2023/01/29 01:43:54;;;;;;;20.00;10.10;;;4.30;99.90;;;;;;5157568;27;20133;-80
2023/01/29 01:46:40;;;;;;;22.35;11.57;;;4.30;99.90;;;;;;5177146;27;20050;-79
2023/01/29 01:49:27;;;;;;;19.17;10.98;;;4.30;99.90;;;;;;5176996;27;20494;-77
2023/01/29 01:52:16;;;;;;;22.48;11.57;;;4.30;99.90;;;;;;5174738;27;20089;-82
2023/01/29 01:55:02;;;;;;;17.85;10.85;;;4.30;99.90;;;;;;5173987;27;20191;-83
2023/01/29 01:57:53;;;;;;;18.65;10.60;;;4.30;99.90;;;;;;5158022;27;20046;-84
2023/01/29 02:00:41;;;;;;;23.27;13.15;;;4.30;99.90;;;;;;5158093;27;20092;-80
2023/01/29 02:09:57;;;;;;;24.02;13.77;;;4.30;99.90;;;;;;5165014;27;20451;-78
2023/01/29 02:12:44;;;;;;;23.02;12.60;;;4.30;99.90;;;;;;5173343;27;20069;-80
2023/01/29 02:15:30;;;;;;;27.20;14.65;;;4.30;99.90;;;;;;5175985;27;20046;-82
2023/01/29 02:18:19;;;;;;;30.20;14.82;;;4.40;99.90;;;;;;5174910;27;20108;-77
2023/01/29 02:21:36;;;;;;;27.95;15.25;;;4.40;99.90;;;;;;5174327;27;20078;-80
2023/01/29 02:24:41;;;;;;;28.05;14.70;;;4.40;99.90;;;;;;5173455;27;20481;-82
2023/01/29 02:27:47;;;;;;;35.58;16.80;;;4.40;99.90;;;;;;5172082;27;20054;-82
2023/01/29 02:30:54;;;;;;;33.92;16.35;;;4.40;99.90;;;;;;5154740;27;20046;-82
2023/01/29 02:34:02;;;;;;;37.72;17.08;;;4.40;99.90;;;;;;5135860;27;20422;-81
2023/01/29 02:36:51;;;;;;;32.63;15.88;;;4.40;99.90;;;;;;5154000;27;20562;-80
2023/01/29 02:40:04;;;;;;;31.92;16.13;;;4.40;99.90;;;;;;5159294;27;20046;-81
2023/01/29 02:43:07;;;;;;;30.38;15.95;;;4.50;99.90;;;;;;5152789;27;20047;-81
2023/01/29 02:46:18;;;;;;;33.30;17.10;;;4.40;99.90;;;;;;5151258;27;20048;-82
2023/01/29 02:49:32;;;;;;;36.50;16.95;;;4.40;99.90;;;;;;5135425;27;20414;-81
2023/01/29 02:52:56;;;;;;;36.13;17.17;;;4.50;99.90;;;;;;5152974;27;20090;-84
2023/01/29 02:55:51;;;;;;;36.53;17.90;;;4.40;99.90;;;;;;5153441;27;20121;-80
2023/01/29 02:58:44;;;;;;;34.92;18.70;;;4.40;99.90;;;;;;5152551;27;20502;-78
2023/01/29 03:01:54;;;;;;;39.15;18.38;;;4.40;99.90;;;;;;5152560;27;20501;-79
2023/01/29 03:04:45;;;;;;;40.47;16.48;;;4.30;99.90;;;;;;5155647;27;20086;-81
2023/01/29 03:07:43;;;;;;;31.73;16.05;;;4.30;99.90;;;;;;5134631;27;20053;-78
2023/01/29 03:11:05;;;;;;;37.67;17.73;;;4.20;99.90;;;;;;5152526;27;20524;-78
2023/01/29 03:14:03;;;;;;;32.88;16.95;;;4.20;99.90;;;;;;5048340;28;20582;-77
2023/01/29 03:16:51;;;;;;;37.47;19.48;;;4.20;99.90;;;;;;5127672;27;20472;-79
2023/01/29 03:19:42;;;;;;;39.45;18.20;;;4.20;99.90;;;;;;5171977;27;20039;-85
2023/01/29 03:22:29;;;;;;;43.75;19.63;;;4.20;99.90;;;;;;5172911;27;20038;-78
2023/01/29 03:34:50;;;;;;;39.83;17.75;;;4.30;99.90;;;;;;5172792;27;20050;-80
2023/01/29 03:37:45;;;;;;;35.20;17.33;;;4.30;99.90;;;;;;5172267;27;20046;-80
2023/01/29 03:40:44;;;;;;;43.08;18.95;;;4.30;99.90;;;;;;5156095;27;20586;-80
2023/01/29 03:44:29;;;;;;;42.15;18.55;;;4.30;99.90;;;;;;5172511;27;20042;-78
2023/01/29 03:47:48;;;;;;;38.95;18.08;;;4.30;99.90;;;;;;5150830;27;20042;-80
2023/01/29 03:50:51;;;;;;;45.90;19.65;;;4.30;99.90;;;;;;5152494;27;20057;-81
2023/01/29 03:53:53;;;;;;;41.40;20.90;;;4.20;99.90;;;;;;5172622;27;20046;-79
2023/01/29 03:56:54;;;;;;;43.17;19.27;;;4.20;99.90;;;;;;5172346;27;20042;-79
2023/01/29 03:59:44;;;;;;;46.08;21.38;;;4.20;99.90;;;;;;5152959;27;20050;-79
2023/01/29 04:02:45;;;;;;;44.25;21.05;;;4.20;99.90;;;;;;5153623;27;20549;-78
2023/01/29 04:05:42;;;;;;;39.78;19.08;;;4.20;99.90;;;;;;5171947;27;20077;-79
2023/01/29 04:08:33;;;;;;;40.53;19.85;;;4.30;99.90;;;;;;5174177;27;20079;-79
2023/01/29 04:11:22;;;;;;;47.35;21.23;;;4.30;99.90;;;;;;5171324;27;20046;-78
2023/01/29 04:14:08;;;;;;;44.25;20.90;;;4.30;99.90;;;;;;5156456;27;20046;-78
2023/01/29 04:16:59;;;;;;;48.70;23.15;;;4.30;99.90;;;;;;5171160;27;20125;-78
2023/01/29 04:19:46;;;;;;;46.55;21.40;;;4.30;99.90;;;;;;5171993;27;20046;-80
2023/01/29 04:22:36;;;;;;;47.22;22.02;;;4.30;99.90;;;;;;5154892;27;20054;-79
2023/01/29 04:25:28;;;;;;;46.60;23.08;;;4.30;99.90;;;;;;5159576;27;20141;-80
2023/01/29 04:28:26;;;;;;;45.63;23.50;;;4.30;99.90;;;;;;5170538;27;20141;-79
2023/01/29 04:31:13;;;;;;;45.53;20.65;;;4.30;99.90;;;;;;5170937;27;20502;-79
2023/01/29 04:34:23;;;;;;;53.83;22.05;;;4.30;99.90;;;;;;5152551;27;20062;-81
2023/01/29 04:37:28;;;;;;;46.58;21.35;;;4.30;99.90;;;;;;5138721;27;20110;-80
2023/01/29 04:40:22;;;;;;;41.35;21.52;;;4.30;99.90;;;;;;5154963;27;20058;-82
2023/01/29 04:43:16;;;;;;;47.97;21.90;;;4.30;99.90;;;;;;5173483;27;20121;-80
2023/01/29 04:46:19;;;;;;;46.10;21.40;;;4.30;99.90;;;;;;5176091;27;20133;-81
2023/01/29 04:49:17;;;;;;;44.90;22.85;;;4.30;99.90;;;;;;5175926;27;20050;-80
2023/01/29 04:52:27;;;;;;;47.05;22.55;;;4.30;99.90;;;;;;5175406;27;20130;-83
2023/01/29 04:55:16;;;;;;;42.70;22.42;;;4.30;99.90;;;;;;5176717;27;20406;-85
2023/01/29 04:58:05;;;;;;;43.97;23.83;;;4.30;99.90;;;;;;5176034;27;20041;-83
2023/01/29 05:00:53;;;;;;;44.83;22.83;;;4.30;99.90;;;;;;5176376;27;20049;-78
2023/01/29 05:03:43;;;;;;;51.97;23.52;;;4.30;99.90;;;;;;5176773;27;20057;-83
2023/01/29 05:06:31;;;;;;;45.90;23.40;;;4.30;99.90;;;;;;5174523;27;20076;-84
2023/01/29 05:09:18;;;;;;;50.60;24.63;;;4.30;99.90;;;;;;5177001;27;20136;-80
2023/01/29 05:12:08;;;;;;;50.50;22.33;;;4.30;99.90;;;;;;5178057;27;20137;-82
2023/01/29 05:14:56;;;;;;;54.55;24.70;;;4.30;99.90;;;;;;5175587;27;20042;-83
2023/01/29 05:17:43;;;;;;;52.45;25.35;;;4.30;99.90;;;;;;5159665;27;20046;-83
2023/01/29 05:20:34;;;;;;;56.72;25.25;;;4.20;99.90;;;;;;5160239;27;20482;-81
2023/01/29 05:23:22;;;;;;;53.03;24.73;;;4.20;99.90;;;;;;5175530;27;20055;-79
2023/01/29 05:26:08;;;;;;;56.58;25.45;;;4.20;99.90;;;;;;5177118;27;20051;-84
2023/01/29 05:28:54;;;;;;;71.47;27.58;;;4.20;99.90;;;;;;5177033;27;20050;-80
2023/01/29 05:31:43;;;;;;;61.20;25.20;;;4.20;99.90;;;;;;5174075;27;20046;-79
2023/01/29 05:34:29;;;;;;;70.35;28.65;;;4.20;99.90;;;;;;5175598;27;20038;-80
2023/01/29 05:37:15;;;;;;;60.22;25.75;;;4.20;99.90;;;;;;5174650;27;20580;-79
2023/01/29 05:40:01;;;;;;;66.70;28.45;;;4.20;99.90;;;;;;5174639;27;20133;-84
2023/01/29 05:42:47;;;;;;;63.58;27.90;;;4.20;99.90;;;;;;5177888;27;20467;-82
2023/01/29 05:45:34;;;;;;;62.33;26.70;;;4.20;99.90;;;;;;5178200;27;20129;-77
2023/01/29 05:48:20;;;;;;;61.72;28.05;;;4.20;99.90;;;;;;5173757;27;20057;-80
2023/01/29 05:51:06;;;;;;;60.65;26.85;;;4.20;99.90;;;;;;5158400;27;20421;-78
2023/01/29 05:53:52;;;;;;;64.80;28.17;;;4.20;99.90;;;;;;5174765;27;20050;-79
2023/01/29 05:56:39;;;;;;;66.60;29.40;;;4.20;99.90;;;;;;5173865;27;20046;-82
2023/01/29 05:59:25;;;;;;;64.75;28.83;;;4.10;99.90;;;;;;5176802;27;20126;-80
2023/01/29 06:02:11;;;;;;;53.65;26.40;;;4.20;99.90;;;;;;5155096;27;20069;-81
2023/01/29 06:04:57;;;;;;;54.58;25.60;;;4.20;99.90;;;;;;5174644;27;20137;-77
2023/01/29 06:07:44;;;;;;;59.33;26.23;;;4.20;99.90;;;;;;5180265;27;20050;-79
2023/01/29 06:10:30;;;;;;;51.30;23.92;;;4.20;99.90;;;;;;5174624;27;20046;-80
2023/01/29 06:13:16;;;;;;;49.75;23.52;;;4.20;99.90;;;;;;5175626;27;20061;-80
2023/01/29 06:16:09;;;;;;;47.10;23.73;;;4.20;99.90;;;;;;5158806;27;20078;-84
2023/01/29 06:18:55;;;;;;;45.78;23.02;;;4.20;99.90;;;;;;5157394;27;20712;-77
2023/01/29 06:21:43;;;;;;;41.85;22.15;;;4.20;99.90;;;;;;5174024;27;20088;-79
2023/01/29 06:24:29;;;;;;;41.95;21.27;;;4.30;99.90;;;;;;5158448;27;20050;-78
2023/01/29 06:27:15;;;;;;;38.42;20.38;;;4.30;99.90;;;;;;5173255;27;20042;-83
2023/01/29 06:30:05;;;;;;;39.13;20.75;;;4.30;99.90;;;;;;5176452;27;20058;-78
2023/01/29 06:32:57;;;;;;;41.38;21.15;;;4.30;99.90;;;;;;5158745;27;20073;-78
2023/01/29 06:35:43;;;;;;;37.58;19.38;;;4.30;99.90;;;;;;5173091;27;20502;-80
2023/01/29 06:38:30;;;;;;;34.25;18.67;;;4.30;99.90;;;;;;5173730;27;20466;-80
2023/01/29 06:41:18;;;;;;;36.28;18.58;;;4.30;99.90;;;;;;5157731;27;20759;-83
2023/01/29 06:44:04;;;;;;;41.25;19.55;;;4.30;99.90;;;;;;5174071;27;20054;-83
2023/01/29 06:46:50;;;;;;;37.17;19.58;;;4.40;99.90;;;;;;5173842;27;20126;-79
2023/01/29 06:49:36;;;;;;;39.63;19.25;;;4.40;99.90;;;;;;5154873;27;20061;-77
2023/01/29 06:52:24;;;;;;;41.47;19.98;;;4.40;99.90;;;;;;5179293;27;20073;-83
2023/01/29 06:55:10;;;;;;;45.65;21.05;;;4.40;99.90;;;;;;5173520;27;20046;-82
2023/01/29 06:57:56;;;;;;;43.50;21.25;;;4.40;99.90;;;;;;5173331;27;20051;-84
2023/01/29 07:00:43;;;;;;;40.17;20.80;;;4.40;99.90;;;;;;5164913;27;20089;-81
2023/01/29 07:03:29;;;;;;;37.20;19.92;;;4.30;99.90;;;;;;5173738;27;20088;-79
2023/01/29 07:06:15;;;;;;;40.47;20.30;;;4.40;99.90;;;;;;5173613;27;20516;-79
2023/01/29 07:09:03;;;;;;;35.92;18.50;;;4.30;99.90;;;;;;5152518;27;20058;-79
2023/01/29 07:11:49;;;;;;;41.53;20.88;;;4.30;99.90;;;;;;5139311;27;20466;-80
2023/01/29 07:14:35;;;;;;;43.70;21.23;;;4.30;99.90;;;;;;5159825;27;20050;-78
2023/01/29 07:17:21;;;;;;;42.67;22.13;;;4.30;99.90;;;;;;5153380;27;20090;-83
2023/01/29 07:20:08;;;;;;;39.47;20.55;;;4.30;99.90;;;;;;5171687;27;20042;-79
2023/01/29 07:22:56;;;;;;;45.95;21.30;;;4.30;99.90;;;;;;5157256;27;20110;-82
2023/01/29 07:25:42;;;;;;;44.22;23.08;;;4.30;99.90;;;;;;5157920;27;20042;-78
2023/01/29 07:28:28;;;;;;;48.25;23.63;;;4.30;99.90;;;;;;5171916;27;20050;-84
2023/01/29 07:31:15;;;;;;;50.05;25.33;;;4.30;99.90;;;;;;5173500;27;20121;-79
2023/01/29 07:34:01;;;;;;;51.58;25.50;;;4.30;99.90;;;;;;5154297;27;20072;-76
2023/01/29 07:36:47;;;;;;;49.60;24.25;;;4.20;99.90;;;;;;5159587;27;20063;-76
2023/01/29 07:39:33;;;;;;;57.42;27.08;;;4.30;99.90;;;;;;5175804;27;20058;-77
2023/01/29 07:42:19;;;;;;;53.85;26.95;;;4.30;99.90;;;;;;5171964;27;20624;-82
2023/01/29 07:45:07;;;;;;;61.13;27.60;;;4.30;99.90;;;;;;5172151;27;20046;-83
2023/01/29 07:47:54;;;;;;;54.55;26.10;;;4.30;99.90;;;;;;5172777;27;20053;-79
2023/01/29 07:50:41;;;;;;;57.42;28.63;;;4.20;99.90;;;;;;5171394;27;20053;-80
2023/01/29 07:53:27;;;;;;;60.72;29.85;;;4.20;99.90;;;;;;5171411;27;20129;-83
2023/01/29 07:56:13;;;;;;;61.50;29.55;;;4.20;99.90;;;;;;5173903;27;20141;-80
2023/01/29 07:59:00;;;;;;;58.08;29.50;;;4.20;99.90;;;;;;5174990;27;20042;-82
2023/01/29 08:01:46;;;;;;;54.42;27.15;;;4.30;99.90;;;;;;5154419;27;20479;-84
2023/01/29 08:04:32;;;;;;;57.45;27.42;;;4.30;99.90;;;;;;5174845;27;20583;-84
2023/01/29 08:07:18;;;;;;;59.75;28.77;;;4.30;99.90;;;;;;5171275;27;20520;-82
2023/01/29 08:10:04;;;;;;;60.78;29.33;;;4.30;99.90;;;;;;5171402;27;20061;-82
2023/01/29 08:12:58;;;;;;;58.08;28.00;;;4.30;99.90;;;;;;5171742;27;20039;-84
2023/01/29 08:15:44;;;;;;;63.45;29.27;;;4.30;99.90;;;;;;5171088;27;20113;-80
2023/01/29 08:18:30;;;;;;;62.03;28.05;;;4.40;99.90;;;;;;5179543;27;20101;-83
2023/01/29 08:21:17;;;;;;;62.97;28.85;;;4.40;99.90;;;;;;5178120;27;20046;-79
2023/01/29 08:24:03;;;;;;;55.75;27.17;;;4.40;99.90;;;;;;5176101;27;20046;-80
2023/01/29 08:26:49;;;;;;;56.25;28.00;;;4.40;99.90;;;;;;5156294;27;20042;-79
2023/01/29 08:29:37;;;;;;;56.72;28.25;;;4.50;99.90;;;;;;5173220;27;20050;-82
2023/01/29 08:32:23;;;;;;;58.13;28.58;;;4.40;99.90;;;;;;5174776;27;20044;-85
2023/01/29 08:35:09;;;;;;;64.97;30.35;;;4.50;99.90;;;;;;5156200;27;20057;-84
2023/01/29 08:37:59;;;;;;;61.35;29.25;;;4.50;99.90;;;;;;5155232;27;20126;-83
2023/01/29 08:40:46;;;;;;;65.93;30.17;;;4.50;99.90;;;;;;5171609;27;20042;-84
2023/01/29 08:43:35;;;;;;;64.10;28.90;;;4.50;99.90;;;;;;5155106;27;20054;-81
2023/01/29 08:46:23;;;;;;;62.08;30.10;;;4.50;99.90;;;;;;5156102;27;20061;-83
2023/01/29 08:49:09;;;;;;;67.05;31.52;;;4.60;99.90;;;;;;5164068;27;20048;-85
2023/01/29 08:51:56;;;;;;;65.35;30.15;;;4.60;99.90;;;;;;5174830;27;20038;-80
2023/01/29 08:54:42;;;;;;;60.65;30.92;;;4.60;99.90;;;;;;5171475;27;20057;-80
2023/01/29 08:57:28;;;;;;;65.63;32.42;;;4.60;99.90;;;;;;5171393;27;20172;-80
2023/01/29 09:00:15;;;;;;;59.03;28.38;;;4.60;99.90;;;;;;5171230;27;20085;-79
2023/01/29 09:03:02;;;;;;;58.72;29.83;;;4.60;99.90;;;;;;5171780;27;20050;-81
2023/01/29 09:05:48;;;;;;;55.60;28.58;;;4.60;99.90;;;;;;5174038;27;20110;-84
2023/01/29 09:08:35;;;;;;;56.85;28.95;;;4.70;99.90;;;;;;5181998;27;20054;-80
2023/01/29 09:11:21;;;;;;;61.65;28.67;;;4.70;99.90;;;;;;5162030;27;20133;-79
2023/01/29 09:14:08;;;;;;;60.67;28.38;;;4.70;99.90;;;;;;5172645;27;20140;-79
2023/01/29 09:16:54;;;;;;;58.17;29.52;;;4.70;99.90;;;;;;5156697;27;20057;-80
2023/01/29 09:19:41;;;;;;;51.35;26.55;;;4.70;99.90;;;;;;5172035;27;20053;-79
2023/01/29 09:22:27;;;;;;;59.95;29.27;;;4.80;99.90;;;;;;5173418;27;20050;-82
2023/01/29 09:25:14;;;;;;;65.40;30.30;;;4.70;99.90;;;;;;5177095;27;20133;-83
2023/01/29 09:28:00;;;;;;;54.45;27.63;;;4.70;99.90;;;;;;5171156;27;20524;-82
2023/01/29 09:30:46;;;;;;;56.38;27.65;;;4.70;99.90;;;;;;5171857;27;20522;-81
2023/01/29 09:33:32;;;;;;;57.92;30.30;;;4.70;99.90;;;;;;5174780;27;20050;-81
2023/01/29 09:36:18;;;;;;;57.50;29.92;;;4.80;99.90;;;;;;5158266;27;20038;-81
2023/01/29 09:39:04;;;;;;;60.53;29.00;;;4.80;99.90;;;;;;5163749;27;20390;-80
2023/01/29 09:42:11;;;;;;;59.97;28.98;;;4.90;99.90;;;;;;5181063;27;20384;-83
2023/01/29 09:45:35;;;;;;;59.88;28.73;;;4.80;99.90;;;;;;5166758;27;20058;-80
2023/01/29 09:48:27;;;;;;;61.00;29.33;;;4.80;99.90;;;;;;5069242;28;20059;-78
2023/01/29 09:51:31;;;;;;;56.85;27.70;;;4.80;99.90;;;;;;5174548;27;20055;-80
2023/01/29 09:54:23;;;;;;;51.78;25.92;;;4.80;99.90;;;;;;5176952;27;20046;-84
2023/01/29 09:57:18;;;;;;;55.47;27.02;;;4.80;99.90;;;;;;5156941;27;20049;-79
2023/01/29 10:00:05;;;;;;;56.08;28.13;;;4.80;99.90;;;;;;5159824;27;20046;-80
2023/01/29 10:03:26;;;;;;;57.78;28.20;;;4.80;99.90;;;;;;5174471;27;20498;-79
2023/01/29 10:06:33;;;;;;;61.58;28.08;;;4.80;99.90;;;;;;5180014;27;20129;-80
2023/01/29 10:09:38;;;;;;;57.72;26.38;;;4.80;99.90;;;;;;5158165;27;20050;-80
2023/01/29 10:12:36;;;;;;;64.93;28.88;;;4.80;99.90;;;;;;5157666;27;20058;-80
2023/01/29 10:15:41;;;;;;;59.40;28.92;;;4.80;99.90;;;;;;5174430;27;20042;-85
2023/01/29 10:18:49;;;;;;;54.90;27.98;;;4.80;99.90;;;;;;5174135;27;20050;-82
2023/01/29 10:21:41;;;;;;;55.90;26.98;;;4.80;99.90;;;;;;5183033;27;20046;-81
2023/01/29 10:24:37;;;;;;;63.63;28.75;;;4.80;99.90;;;;;;5141076;27;20133;-83
2023/01/29 10:27:30;;;;;;;59.08;27.55;;;4.80;99.90;;;;;;5172579;27;20501;-86
2023/01/29 10:30:31;;;;;;;63.25;27.35;;;4.80;99.90;;;;;;5173272;27;20054;-82
2023/01/29 10:33:44;;;;;;;56.35;25.95;;;4.90;99.90;;;;;;5157098;27;20050;-85
2023/01/29 10:36:41;;;;;;;57.95;26.48;;;4.90;99.90;;;;;;5154371;27;20133;-82
2023/01/29 10:39:29;;;;;;;61.15;28.02;;;4.90;99.90;;;;;;5158645;27;20085;-81
2023/01/29 10:42:29;;;;;;;59.13;26.08;;;4.90;99.90;;;;;;5178279;27;20833;-84
2023/01/29 10:45:20;;;;;;;82.50;27.05;;;4.90;99.90;;;;;;5173767;27;20046;-80
2023/01/29 10:48:20;;;;;;;54.85;24.52;;;4.90;99.90;;;;;;5172864;27;20413;-83
2023/01/29 10:51:18;;;;;;;51.80;24.60;;;4.90;99.90;;;;;;5173317;27;20057;-81
2023/01/29 10:54:22;;;;;;;49.72;21.80;;;4.90;99.90;;;;;;5173192;27;20049;-83
2023/01/29 10:57:24;;;;;;;53.60;23.20;;;4.90;99.90;;;;;;5172812;27;20054;-83
2023/01/29 11:00:20;;;;;;;52.50;23.02;;;5.00;99.90;;;;;;5174267;27;20529;-84
2023/01/29 11:03:17;;;;;;;46.20;21.73;;;5.00;99.90;;;;;;5165084;27;20039;-82
2023/01/29 11:06:24;;;;;;;46.50;19.55;;;5.00;99.90;;;;;;5172941;27;20046;-85
2023/01/29 11:09:25;;;;;;;46.83;21.17;;;5.00;99.90;;;;;;5174676;27;20118;-83
2023/01/29 11:12:18;;;;;;;41.88;18.73;;;5.10;99.90;;;;;;5171719;27;20541;-81
2023/01/29 11:15:13;;;;;;;41.40;17.15;;;5.10;99.90;;;;;;5172768;27;20383;-83
2023/01/29 11:18:14;;;;;;;40.92;18.98;;;5.20;99.90;;;;;;5172848;27;20129;-81
2023/01/29 11:21:03;;;;;;;30.38;15.10;;;5.20;99.90;;;;;;5175620;27;20561;-81
2023/01/29 11:23:49;;;;;;;34.83;16.83;;;5.30;99.90;;;;;;5173496;27;20046;-79
2023/01/29 11:26:39;;;;;;;36.03;16.90;;;5.30;99.90;;;;;;5154933;27;20726;-80
2023/01/29 11:29:41;;;;;;;40.25;18.30;;;5.30;99.90;;;;;;5172653;27;20046;-83
2023/01/29 11:32:33;;;;;;;35.92;16.15;;;5.30;99.90;;;;;;5172940;27;20490;-78
2023/01/29 11:35:24;;;;;;;35.15;16.40;;;5.30;99.90;;;;;;5172140;27;20103;-80
2023/01/29 11:38:23;;;;;;;39.65;16.52;;;5.40;99.90;;;;;;5171821;27;20504;-79
2023/01/29 11:41:21;;;;;;;32.17;16.13;;;5.40;99.90;;;;;;5157699;27;20065;-79
2023/01/29 11:44:18;;;;;;;39.60;15.68;;;5.40;99.90;;;;;;5176255;27;20042;-81
2023/01/29 11:47:13;;;;;;;31.27;14.93;;;5.40;99.90;;;;;;5171898;27;20612;-83
2023/01/29 11:50:01;;;;;;;38.50;15.82;;;5.40;99.90;;;;;;5172079;27;20057;-83
2023/01/29 11:52:48;;;;;;;32.45;14.98;;;5.40;99.90;;;;;;5153996;27;20494;-84
2023/01/29 11:55:36;;;;;;;41.42;17.42;;;5.40;99.90;;;;;;5172889;27;20075;-81
2023/01/29 11:58:34;;;;;;;35.22;16.90;;;5.40;99.90;;;;;;5153781;27;20058;-84
2023/01/29 12:01:35;;;;;;;29.02;15.07;;;5.40;99.90;;;;;;5173834;27;20115;-81
2023/01/29 12:04:23;;;;;;;29.67;14.70;;;5.40;99.90;;;;;;5174023;27;20061;-80
2023/01/29 12:07:16;;;;;;;28.20;13.38;;;5.40;99.90;;;;;;5156212;27;20050;-80
2023/01/29 12:10:03;;;;;;;29.10;14.93;;;5.40;99.90;;;;;;5172251;27;20054;-79
2023/01/29 12:12:49;;;;;;;30.27;13.82;;;5.40;99.90;;;;;;5153365;27;20054;-79
2023/01/29 12:15:39;;;;;;;29.55;12.68;;;5.40;99.90;;;;;;5171921;27;20065;-84
2023/01/29 12:18:47;;;;;;;31.08;14.05;;;5.50;99.90;;;;;;5173722;27;20387;-82
2023/01/29 12:21:56;;;;;;;26.55;13.35;;;5.40;99.90;;;;;;5171223;27;20038;-78
2023/01/29 12:24:58;;;;;;;28.45;12.45;;;5.50;99.90;;;;;;5175867;27;20061;-81
2023/01/29 12:27:56;;;;;;;31.05;13.30;;;5.50;99.90;;;;;;5170742;27;20061;-82
2023/01/29 12:31:20;;;;;;;30.13;12.65;;;5.50;99.90;;;;;;5172422;27;20101;-83
2023/01/29 12:34:26;;;;;;;28.65;12.98;;;5.60;99.90;;;;;;5156073;27;20517;-83
2023/01/29 12:37:22;;;;;;;27.67;11.73;;;5.60;99.90;;;;;;5170736;27;20046;-81
2023/01/29 12:40:14;;;;;;;28.05;11.07;;;5.60;99.90;;;;;;5171908;27;20046;-83
2023/01/29 12:43:12;;;;;;;27.65;11.48;;;5.60;99.90;;;;;;5180275;27;20484;-81
2023/01/29 12:45:59;;;;;;;27.23;11.00;;;5.60;99.90;;;;;;5171482;27;20050;-82
2023/01/29 12:48:48;;;;;;;23.23;10.55;;;5.70;99.90;;;;;;5146710;27;20371;-83
2023/01/29 12:51:38;;;;;;;19.88;10.27;;;5.80;99.90;;;;;;5138235;27;20050;-83
2023/01/29 12:54:40;;;;;;;17.63;8.63;;;5.70;99.90;;;;;;5170995;27;20046;-83
2023/01/29 12:57:59;;;;;;;18.58;8.88;;;5.70;99.90;;;;;;5170955;27;20042;-82
2023/01/29 13:00:49;;;;;;;20.42;8.65;;;5.80;99.90;;;;;;5160981;27;20085;-84
2023/01/29 13:03:52;;;;;;;18.00;8.65;;;5.80;99.90;;;;;;5157731;27;20057;-84
2023/01/29 13:06:51;;;;;;;17.60;8.27;;;5.80;99.90;;;;;;5176970;27;20053;-80
2023/01/29 13:09:44;;;;;;;17.45;9.02;;;5.80;99.90;;;;;;5176363;27;20137;-80
2023/01/29 13:12:32;;;;;;;14.63;7.05;;;5.80;99.90;;;;;;5177198;27;20064;-81
2023/01/29 13:15:40;;;;;;;16.42;7.60;;;5.80;99.90;;;;;;5175098;27;20050;-80
2023/01/29 13:19:08;;;;;;;18.90;8.15;;;5.80;99.90;;;;;;5175431;27;20134;-80
2023/01/29 13:21:58;;;;;;;17.10;6.70;;;5.80;99.90;;;;;;5181269;27;20046;-80
2023/01/29 13:24:44;;;;;;;16.98;7.07;;;5.80;99.90;;;;;;5175970;27;20046;-80
2023/01/29 13:27:37;;;;;;;14.93;6.15;;;5.80;99.90;;;;;;5174991;27;20049;-81
2023/01/29 13:30:34;;;;;;;15.48;6.50;;;5.80;99.90;;;;;;5168136;27;20053;-82
2023/01/29 13:33:23;;;;;;;11.65;5.47;;;5.80;99.90;;;;;;5182682;27;20034;-81
2023/01/29 13:36:23;;;;;;;14.50;4.95;;;5.90;99.90;;;;;;5179501;27;20489;-81
2023/01/29 13:39:36;;;;;;;11.38;5.25;;;5.90;99.90;;;;;;5181524;27;20052;-80
2023/01/29 13:42:38;;;;;;;14.68;5.75;;;5.90;99.90;;;;;;5182051;27;20046;-82
2023/01/29 13:45:34;;;;;;;13.95;5.85;;;5.90;99.90;;;;;;5176346;27;20058;-80
2023/01/29 13:48:25;;;;;;;;;;;6.00;99.90;;;;;;5175088;27;20508;-78
2023/01/29 13:51:19;;;;;;;12.50;5.80;;;6.00;99.90;;;;;;5174519;27;19926;-80
2023/01/29 13:54:15;;;;;;;18.35;6.40;;;6.00;99.90;;;;;;5176655;27;20134;-78
2023/01/29 13:57:01;;;;;;;16.45;6.00;;;6.00;99.90;;;;;;5162894;27;20417;-79
2023/01/29 13:59:54;;;;;;;13.45;5.43;;;6.00;99.90;;;;;;5159677;27;20046;-80
2023/01/29 14:02:40;;;;;;;16.92;4.97;;;6.10;99.90;;;;;;5176421;27;20487;-78
2023/01/29 14:05:29;;;;;;;12.20;5.65;;;6.10;99.90;;;;;;5160666;27;20145;-81
2023/01/29 14:08:33;;;;;;;14.80;4.75;;;6.10;99.90;;;;;;5173545;27;20498;-81
2023/01/29 14:11:20;;;;;;;11.50;4.38;;;6.10;99.90;;;;;;5174695;27;20090;-82
2023/01/29 14:14:45;;;;;;;7.15;3.20;;;6.10;99.90;;;;;;5155904;27;20057;-81
2023/01/29 14:17:31;;;;;;;8.85;3.10;;;6.00;99.90;;;;;;5173401;27;20137;-79
2023/01/29 14:20:22;;;;;;;9.00;3.20;;;5.90;99.90;;;;;;5158484;27;20135;-80
2023/01/29 14:23:27;;;;;;;8.15;3.13;;;5.90;99.90;;;;;;5173817;27;20050;-81
2023/01/29 14:26:47;;;;;;;11.65;3.20;;;5.90;99.90;;;;;;5173775;27;20398;-82
2023/01/29 14:29:40;;;;;;;8.30;3.97;;;5.90;99.90;;;;;;5173231;27;20065;-83
2023/01/29 14:32:26;;;;;;;10.45;4.65;;;5.80;99.90;;;;;;5177235;27;20401;-79
2023/01/29 14:35:25;;;;;;;17.38;6.00;;;5.80;99.90;;;;;;5174520;27;20085;-81
2023/01/29 14:38:13;;;;;;;12.23;5.70;;;5.90;99.90;;;;;;5158869;27;20050;-80
2023/01/29 14:41:21;;;;;;;17.73;6.57;;;5.90;99.90;;;;;;5173210;27;20038;-81
2023/01/29 14:44:47;;;;;;;20.70;7.93;;;5.90;99.90;;;;;;5174174;27;20053;-80
2023/01/29 14:47:33;;;;;;;12.75;6.97;;;5.90;99.90;;;;;;5173955;27;20047;-80
2023/01/29 14:50:28;;;;;;;18.75;8.10;;;5.90;99.90;;;;;;5178600;27;20058;-83
2023/01/29 14:53:39;;;;;;;22.42;7.85;;;5.90;99.90;;;;;;5176730;27;20054;-79
2023/01/29 14:57:04;;;;;;;21.33;7.85;;;5.90;99.90;;;;;;5173033;27;20046;-80
2023/01/29 15:00:04;;;;;;;18.85;7.40;;;5.90;99.90;;;;;;5173964;27;20046;-79
2023/01/29 15:02:53;;;;;;;19.67;6.95;;;6.00;99.90;;;;;;5173226;27;20046;-80
2023/01/29 15:05:41;;;;;;;20.35;8.05;;;5.90;99.90;;;;;;5159545;27;20132;-82
2023/01/29 15:08:48;;;;;;;19.05;7.28;;;6.00;99.90;;;;;;5155042;27;20383;-84
2023/01/29 15:11:47;;;;;;;19.10;7.80;;;6.00;99.90;;;;;;5178520;27;20054;-84
2023/01/29 15:14:43;;;;;;;21.98;7.20;;;6.00;99.90;;;;;;5173134;27;20089;-83
2023/01/29 15:17:42;;;;;;;;;;;6.00;99.90;;;;;;5172629;27;20497;-82
2023/01/29 15:20:37;;;;;;;17.08;6.80;;;6.00;99.90;;;;;;5174399;27;19929;-84
2023/01/29 15:23:30;;;;;;;21.80;9.15;;;6.00;99.90;;;;;;5177266;27;20053;-81